Time;durP1;ratioP1;P1;durP2;ratioP2;P2;SDS_P1;SDS_P2;PMS_P1;PMS_P2;Temp;Humidity;BMP_temperature;BMP_pressure;BME280_temperature;BME280_humidity;BME280_pressure;Samples;Min_cycle;Max_cycle;Signal;HPM_P1;HPM_P2
2023/10/07 00:01:24;;;;;;;13.73;4.63;;;;;;;13.50;99.02;101948.19;5065059;28;20604;-67
2023/10/07 00:03:53;;;;;;;7.80;3.13;;;;;;;13.47;99.74;101943.28;5029624;28;20044;-66
2023/10/07 00:06:25;;;;;;;10.50;4.18;;;;;;;13.38;99.94;101944.97;5062746;28;20121;-67
2023/10/07 00:08:51;;;;;;;11.38;3.83;;;;;;;13.36;100.00;101939.09;5059050;28;20028;-66
2023/10/07 00:11:16;;;;;;;11.57;3.78;;;;;;;13.35;100.00;101944.44;5044875;28;20723;-67
2023/10/07 00:13:42;;;;;;;17.52;4.10;;;;;;;13.39;100.00;101948.41;5030224;28;20508;-67
2023/10/07 00:16:10;;;;;;;10.52;4.07;;;;;;;13.52;100.00;101954.06;5043931;28;20514;-68
2023/10/07 00:18:38;;;;;;;10.70;3.38;;;;;;;13.39;100.00;101949.22;5024673;28;20051;-67
2023/10/07 00:21:04;;;;;;;6.05;3.20;;;;;;;13.31;100.00;101945.72;5060891;28;20040;-67
2023/10/07 00:23:30;;;;;;;10.15;3.55;;;;;;;13.29;100.00;101945.00;5043602;28;20485;-67
2023/10/07 00:26:00;;;;;;;11.15;4.13;;;;;;;13.30;100.00;101946.63;5040196;28;20057;-67
2023/10/07 00:28:32;;;;;;;11.40;3.67;;;;;;;13.33;100.00;101951.59;5060002;28;20040;-67
2023/10/07 00:31:22;;;;;;;14.07;4.22;;;;;;;13.25;100.00;101944.47;5043368;28;20028;-67
2023/10/07 00:34:05;;;;;;;11.98;4.25;;;;;;;13.29;100.00;101939.78;5043745;28;20037;-67
2023/10/07 00:39:00;;;;;;;17.45;4.30;;;;;;;13.31;100.00;101933.50;5048534;28;20048;-67
2023/10/07 00:41:31;;;;;;;10.30;3.75;;;;;;;13.35;100.00;101937.44;5047959;28;20025;-67
2023/10/07 00:44:07;;;;;;;15.45;4.00;;;;;;;13.40;100.00;101932.63;5049112;28;20052;-67
2023/10/07 00:46:34;;;;;;;8.43;3.75;;;;;;;13.41;100.00;101939.47;5047434;28;20097;-67
2023/10/07 00:49:09;;;;;;;12.88;3.80;;;;;;;13.44;100.00;101930.53;5043685;28;20119;-67
2023/10/07 00:51:42;;;;;;;12.43;3.80;;;;;;;13.39;100.00;101920.59;5061324;28;20086;-67
2023/10/07 00:54:57;;;;;;;14.52;4.55;;;;;;;13.27;100.00;101921.72;5046232;28;20461;-67
2023/10/07 00:57:07;;;;;;;15.07;4.47;;;;;;;13.40;100.00;101924.81;5038322;28;20063;-67
2023/10/07 00:59:34;;;;;;;11.55;3.72;;;;;;;13.40;100.00;101931.81;5029584;28;20052;-67
2023/10/07 01:02:05;;;;;;;12.85;4.00;;;;;;;13.41;100.00;101928.22;5033677;28;20056;-67
2023/10/07 01:04:40;;;;;;;13.93;4.10;;;;;;;13.38;100.00;101918.94;5027652;28;20032;-67
2023/10/07 01:07:06;;;;;;;11.32;3.95;;;;;;;13.32;100.00;101905.69;5049423;28;20094;-68
2023/10/07 01:09:32;;;;;;;13.57;4.25;;;;;;;13.48;100.00;101902.41;5056101;28;20057;-67
2023/10/07 01:11:58;;;;;;;15.02;4.10;;;;;;;13.35;100.00;101893.16;5047444;28;20041;-67
2023/10/07 01:14:26;;;;;;;10.70;3.90;;;;;;;13.33;100.00;101895.09;5047603;28;20087;-68
2023/10/07 01:16:53;;;;;;;17.85;5.22;;;;;;;13.39;100.00;101897.13;5050100;28;20020;-67
2023/10/07 01:19:27;;;;;;;11.95;3.80;;;;;;;13.40;100.00;101905.75;5066086;28;20056;-67
2023/10/07 01:21:55;;;;;;;12.77;4.40;;;;;;;13.41;100.00;101900.41;5030355;28;20055;-67
2023/10/07 01:27:21;;;;;;;10.70;4.10;;;;;;;13.41;100.00;101910.81;5046667;28;20033;-67
2023/10/07 01:29:59;;;;;;;9.50;3.75;;;;;;;13.29;100.00;101911.16;5056167;28;20048;-67
2023/10/07 01:32:34;;;;;;;12.07;4.28;;;;;;;13.21;100.00;101911.88;5028912;28;20024;-67
2023/10/07 01:35:10;;;;;;;12.00;4.43;;;;;;;13.20;100.00;101913.69;5038055;28;20055;-68
2023/10/07 01:37:50;;;;;;;11.20;4.57;;;;;;;13.24;100.00;101907.19;5062144;28;20107;-67
2023/10/07 01:40:17;;;;;;;20.52;4.53;;;;;;;13.27;100.00;101900.06;5044427;28;20541;-67
2023/10/07 01:42:43;;;;;;;14.80;4.80;;;;;;;13.25;100.00;101901.00;5060945;28;20033;-68
2023/10/07 01:45:22;;;;;;;18.75;4.40;;;;;;;13.25;100.00;101895.00;5041475;28;20059;-67
2023/10/07 01:47:55;;;;;;;12.93;5.10;;;;;;;13.25;100.00;101893.19;5042532;28;20106;-68
2023/10/07 01:50:24;;;;;;;;;;;;;;;13.35;100.00;101874.94;5045446;28;20112;-67
2023/10/07 01:52:52;;;;;;;17.23;4.55;;;;;;;13.32;100.00;101885.66;5026735;28;19924;-67
2023/10/07 01:55:19;;;;;;;15.85;5.10;;;;;;;13.36;100.00;101873.16;5065187;28;20040;-67
2023/10/07 01:57:48;;;;;;;13.35;5.03;;;;;;;13.33;100.00;101883.88;5027103;28;20020;-67
2023/10/07 02:00:34;;;;;;;16.08;5.35;;;;;;;13.31;100.00;101880.59;5047548;28;20020;-68
2023/10/07 02:03:02;;;;;;;15.23;4.97;;;;;;;13.28;100.00;101883.44;5044765;28;20056;-67
2023/10/07 02:05:40;;;;;;;12.35;5.15;;;;;;;13.17;100.00;101890.53;5065381;28;20028;-67
2023/10/07 02:08:20;;;;;;;14.30;5.18;;;;;;;13.21;100.00;101894.47;5040844;28;20044;-67
2023/10/07 02:10:47;;;;;;;15.90;5.40;;;;;;;13.12;100.00;101902.34;5044700;28;20036;-67
2023/10/07 02:13:14;;;;;;;16.52;5.25;;;;;;;13.23;100.00;101899.53;5046825;23;20098;-66
2023/10/07 02:15:43;;;;;;;16.05;5.47;;;;;;;13.25;100.00;101914.03;5041729;28;20037;-67
2023/10/07 02:18:15;;;;;;;17.17;5.50;;;;;;;13.27;100.00;101918.28;5028255;28;20037;-67
2023/10/07 02:21:07;;;;;;;18.80;5.97;;;;;;;13.31;100.00;101915.25;5031299;28;20040;-66
2023/10/07 02:23:37;;;;;;;14.50;6.35;;;;;;;13.24;100.00;101903.75;5056424;28;20045;-67
2023/10/07 02:26:06;;;;;;;19.00;6.07;;;;;;;13.21;100.00;101910.09;5056955;28;20387;-66
2023/10/07 02:28:33;;;;;;;19.27;5.95;;;;;;;13.19;100.00;101904.22;5044479;28;20088;-67
2023/10/07 02:31:03;;;;;;;17.15;5.72;;;;;;;13.22;100.00;101890.06;5040798;28;20037;-67
2023/10/07 02:33:29;;;;;;;24.65;7.43;;;;;;;13.31;100.00;101880.59;5039616;28;20037;-67
2023/10/07 02:35:58;;;;;;;13.27;5.88;;;;;;;13.24;100.00;101890.72;5045442;28;20033;-67
2023/10/07 02:38:36;;;;;;;16.30;6.82;;;;;;;13.18;100.00;101891.31;5041802;28;20041;-67
2023/10/07 02:41:16;;;;;;;21.50;6.65;;;;;;;13.18;100.00;101891.31;5037585;28;20098;-67
2023/10/07 02:43:43;;;;;;;15.38;5.70;;;;;;;13.20;100.00;101892.00;5045831;28;20441;-67
2023/10/07 02:46:22;;;;;;;18.90;6.55;;;;;;;13.16;100.00;101886.25;5054355;28;20118;-67
2023/10/07 02:48:48;;;;;;;17.98;7.22;;;;;;;13.23;100.00;101882.09;5045429;28;20071;-66
2023/10/07 02:51:14;;;;;;;17.33;7.03;;;;;;;13.32;100.00;101883.06;5040327;28;20024;-67
2023/10/07 02:53:39;;;;;;;19.98;7.55;;;;;;;13.31;100.00;101886.59;5039138;28;20482;-67
2023/10/07 02:56:16;;;;;;;16.50;7.18;;;;;;;13.26;100.00;101894.03;5051599;28;20120;-67
2023/10/07 02:59:00;;;;;;;14.82;7.00;;;;;;;13.31;100.00;101891.00;5058673;28;20036;-67
2023/10/07 03:01:26;;;;;;;;;;;;;;;13.26;100.00;101899.25;5038808;28;20033;-67
2023/10/07 03:03:54;;;;;;;18.35;6.63;;;;;;;13.23;100.00;101907.34;5044280;28;19974;-67
2023/10/07 03:06:19;;;;;;;19.67;7.28;;;;;;;13.29;100.00;101885.91;5039194;28;20032;-66
2023/10/07 03:11:13;;;;;;;18.90;6.82;;;;;;;13.42;100.00;101881.19;5039976;28;20029;-66
2023/10/07 03:13:40;;;;;;;17.73;7.65;;;;;;;13.47;100.00;101885.97;5044283;28;20136;-67
2023/10/07 03:22:15;;;;;;;21.08;7.53;;;;;;;13.36;100.00;101879.19;5053196;28;20093;-66
2023/10/07 03:24:25;;;;;;;26.35;8.10;;;;;;;13.55;100.00;101893.03;5033424;28;20040;-66
2023/10/07 03:26:54;;;;;;;20.40;7.50;;;;;;;13.50;100.00;101896.06;5040289;28;20390;-66
2023/10/07 03:29:31;;;;;;;17.15;8.23;;;;;;;13.49;100.00;101896.25;5026236;28;20122;-67
2023/10/07 03:31:59;;;;;;;18.63;7.60;;;;;;;13.43;100.00;101897.66;5039672;28;20024;-67
2023/10/07 03:34:25;;;;;;;20.70;7.75;;;;;;;13.56;100.00;101895.50;5036606;28;20078;-67
2023/10/07 03:42:23;;;;;;;18.13;8.27;;;;;;;13.63;100.00;101887.88;5009232;28;20153;-67
2023/10/07 03:44:50;;;;;;;20.15;8.20;;;;;;;13.62;100.00;101894.09;5036508;28;20032;-67
2023/10/07 03:47:16;;;;;;;16.58;7.40;;;;;;;13.50;100.00;101890.88;5041097;28;20044;-66
2023/10/07 03:49:48;;;;;;;21.30;8.05;;;;;;;13.50;100.00;101880.44;5037891;28;20059;-67
2023/10/07 03:52:14;;;;;;;16.63;6.93;;;;;;;13.50;100.00;101887.44;5057430;28;20114;-66
2023/10/07 03:54:40;;;;;;;21.98;8.05;;;;;;;13.56;100.00;101895.50;5051571;28;20472;-67
2023/10/07 03:57:07;;;;;;;20.02;7.55;;;;;;;13.52;100.00;101888.13;5043625;28;20028;-67
2023/10/07 03:59:34;;;;;;;18.60;8.25;;;;;;;13.54;100.00;101896.59;5054144;28;20068;-67
2023/10/07 04:02:29;;;;;;;18.50;8.68;;;;;;;13.71;100.00;101887.97;5054147;28;21279;-67
2023/10/07 04:04:58;;;;;;;16.50;7.75;;;;;;;13.71;100.00;101884.53;5052740;28;20067;-66
2023/10/07 04:07:24;;;;;;;21.60;8.32;;;;;;;13.71;100.00;101885.38;5052729;28;20482;-67
2023/10/07 04:09:51;;;;;;;15.13;7.25;;;;;;;13.61;100.00;101892.44;5042112;28;20111;-67
2023/10/07 04:12:16;;;;;;;19.75;7.47;;;;;;;13.73;100.00;101880.81;5058083;28;20549;-67
2023/10/07 04:14:42;;;;;;;21.15;7.50;;;;;;;13.82;100.00;101881.69;5039930;28;20036;-66
2023/10/07 04:17:12;;;;;;;19.20;6.72;;;;;;;13.73;100.00;101883.44;5051425;28;20070;-67
2023/10/07 04:19:42;;;;;;;17.98;7.47;;;;;;;13.73;100.00;101877.38;5052545;28;20041;-67
2023/10/07 04:22:08;;;;;;;15.05;6.82;;;;;;;13.65;100.00;101878.13;5051851;28;20040;-66
2023/10/07 04:24:35;;;;;;;19.15;7.30;;;;;;;13.65;100.00;101862.50;5052951;28;20937;-66
2023/10/07 04:27:03;;;;;;;15.57;7.05;;;;;;;13.72;100.00;101862.72;5028212;28;20163;-67
2023/10/07 04:29:31;;;;;;;17.40;6.65;;;;;;;13.79;100.00;101867.19;5040072;28;20694;-67
2023/10/07 04:31:58;;;;;;;16.40;6.88;;;;;;;13.72;100.00;101867.94;5041420;28;20064;-67
2023/10/07 04:34:24;;;;;;;18.98;6.25;;;;;;;13.70;100.00;101865.47;5037922;28;21372;-67
2023/10/07 04:37:13;;;;;;;20.85;6.78;;;;;;;13.74;100.00;101866.00;5054921;28;20044;-67
2023/10/07 04:42:07;;;;;;;12.63;6.43;;;;;;;13.81;100.00;101872.25;5053493;28;20025;-67
2023/10/07 04:47:20;;;;;;;23.23;7.00;;;;;;;13.72;100.00;101873.16;5052432;28;20039;-67
2023/10/07 04:49:55;;;;;;;20.75;6.50;;;;;;;13.88;100.00;101865.47;5046580;28;20044;-67
2023/10/07 04:52:24;;;;;;;17.63;6.45;;;;;;;13.83;100.00;101852.88;5042672;28;20029;-67
2023/10/07 04:54:52;;;;;;;19.17;6.60;;;;;;;13.74;100.00;101851.16;5055653;28;20048;-66
2023/10/07 04:57:39;;;;;;;17.08;7.45;;;;;;;13.74;100.00;101852.97;5041476;28;20032;-67
2023/10/07 05:00:09;;;;;;;23.35;7.20;;;;;;;13.67;100.00;101862.34;5033759;28;20442;-66
2023/10/07 05:02:35;;;;;;;17.38;6.00;;;;;;;13.63;100.00;101851.41;5053914;28;20020;-67
2023/10/07 05:05:09;;;;;;;15.30;6.10;;;;;;;13.73;100.00;101849.56;5036956;28;20043;-67
2023/10/07 05:07:38;;;;;;;14.77;6.07;;;;;;;13.75;100.00;101858.03;5057303;28;20033;-67
2023/10/07 05:10:07;;;;;;;21.90;6.72;;;;;;;13.83;100.00;101847.66;5041194;28;20453;-67
2023/10/07 05:12:33;;;;;;;12.38;5.22;;;;;;;13.77;100.00;101844.84;5057551;28;20095;-67
2023/10/07 05:15:00;;;;;;;12.27;6.15;;;;;;;13.79;100.00;101841.13;5036917;28;20410;-67
2023/10/07 05:17:29;;;;;;;19.13;6.00;;;;;;;13.78;100.00;101849.09;5053106;28;20085;-66
2023/10/07 05:19:58;;;;;;;20.33;5.97;;;;;;;13.75;100.00;101850.22;5036909;28;20128;-67
2023/10/07 05:22:24;;;;;;;16.23;5.75;;;;;;;13.69;100.00;101848.19;5055675;28;20395;-67
2023/10/07 05:24:56;;;;;;;14.45;5.82;;;;;;;13.84;100.00;101851.06;5045537;28;20033;-67
2023/10/07 05:27:23;;;;;;;12.43;5.82;;;;;;;13.75;100.00;101850.22;5031057;28;20514;-67
2023/10/07 05:29:49;;;;;;;14.55;6.00;;;;;;;13.70;100.00;101847.22;5056350;28;20032;-67
2023/10/07 05:32:16;;;;;;;17.65;5.90;;;;;;;13.73;100.00;101846.09;5059670;28;20032;-67
2023/10/07 05:34:42;;;;;;;13.70;6.13;;;;;;;13.80;100.00;101853.16;5042655;28;20517;-67
2023/10/07 05:37:14;;;;;;;11.85;5.70;;;;;;;13.80;100.00;101855.78;5045541;28;20037;-67
2023/10/07 05:39:41;;;;;;;13.20;5.95;;;;;;;13.76;100.00;101867.47;5048360;28;20048;-67
2023/10/07 05:42:07;;;;;;;13.82;6.18;;;;;;;13.75;100.00;101878.03;5039891;28;20107;-67
2023/10/07 05:44:35;;;;;;;15.45;5.63;;;;;;;13.82;100.00;101892.97;5047139;28;20036;-67
2023/10/07 05:47:02;;;;;;;13.57;6.22;;;;;;;13.89;100.00;101874.09;5042629;28;20063;-67
2023/10/07 05:49:31;;;;;;;17.00;6.15;;;;;;;13.85;100.00;101878.78;5055092;28;20567;-67
2023/10/07 05:51:58;;;;;;;16.42;6.03;;;;;;;13.78;100.00;101878.56;5058590;28;20437;-67
2023/10/07 05:54:24;;;;;;;16.98;6.20;;;;;;;13.91;100.00;101891.22;5054886;28;20033;-67
2023/10/07 05:56:50;;;;;;;19.63;5.35;;;;;;;13.96;100.00;101890.78;5048602;28;20040;-67
2023/10/07 05:59:16;;;;;;;16.83;5.85;;;;;;;13.86;100.00;101880.41;5059776;28;20056;-67
2023/10/07 06:01:41;;;;;;;15.20;6.35;;;;;;;13.91;100.00;101878.19;5037904;28;20040;-67
2023/10/07 06:04:08;;;;;;;15.98;5.22;;;;;;;13.88;100.00;101883.72;5056246;28;20140;-67
2023/10/07 06:06:34;;;;;;;14.45;5.80;;;;;;;13.95;100.00;101886.53;5058325;28;20100;-66
2023/10/07 06:09:03;;;;;;;13.70;5.60;;;;;;;13.93;100.00;101880.63;5054690;28;20411;-67
2023/10/07 06:11:34;;;;;;;13.30;5.82;;;;;;;13.89;100.00;101889.75;5043321;28;20446;-67
2023/10/07 06:14:01;;;;;;;16.73;6.10;;;;;;;13.88;100.00;101888.09;5042213;28;20047;-66
2023/10/07 06:16:26;;;;;;;15.85;5.15;;;;;;;13.97;100.00;101887.19;5044189;28;20040;-67
2023/10/07 06:18:52;;;;;;;15.38;5.95;;;;;;;13.92;100.00;101881.59;5056539;28;20033;-66
2023/10/07 06:21:19;;;;;;;18.73;5.05;;;;;;;14.02;100.00;101882.34;5038092;28;20024;-67
2023/10/07 06:23:47;;;;;;;14.15;5.40;;;;;;;14.00;100.00;101886.91;5054474;28;20040;-66
2023/10/07 06:26:12;;;;;;;18.33;5.20;;;;;;;13.97;100.00;101895.81;5038633;28;20061;-66
2023/10/07 06:28:44;;;;;;;18.52;5.53;;;;;;;14.02;100.00;101890.16;5042962;28;20059;-67
2023/10/07 06:31:10;;;;;;;12.80;5.25;;;;;;;13.92;100.00;101892.88;5053552;28;20410;-67
2023/10/07 06:33:42;;;;;;;13.40;5.05;;;;;;;14.04;100.00;101898.66;5054636;28;20490;-67
2023/10/07 06:36:10;;;;;;;19.67;5.43;;;;;;;14.02;100.00;101895.38;5037537;28;20032;-67
2023/10/07 06:38:45;;;;;;;11.68;4.65;;;;;;;14.00;100.00;101887.69;5043824;28;20047;-67
2023/10/07 06:41:11;;;;;;;17.33;5.05;;;;;;;14.06;100.00;101894.09;5041546;28;20116;-67
2023/10/07 06:43:42;;;;;;;14.80;5.32;;;;;;;14.02;100.00;101903.19;5055514;28;20045;-66
2023/10/07 06:46:11;;;;;;;13.45;5.00;;;;;;;14.21;100.00;101902.19;5026337;28;20043;-67
2023/10/07 06:48:40;;;;;;;13.30;5.07;;;;;;;14.18;100.00;101900.72;5053593;28;20123;-67
2023/10/07 06:51:06;;;;;;;19.38;5.88;;;;;;;14.22;100.00;101903.81;5058186;28;20443;-67
2023/10/07 06:53:36;;;;;;;13.45;5.13;;;;;;;14.32;100.00;101906.34;5043339;28;20150;-67
2023/10/07 06:56:01;;;;;;;22.52;5.35;;;;;;;14.30;100.00;101911.72;5059370;28;20037;-67
2023/10/07 06:58:27;;;;;;;15.00;5.30;;;;;;;14.43;100.00;101916.53;5036583;28;20091;-66
2023/10/07 07:01:51;;;;;;;14.02;5.50;;;;;;;14.41;100.00;101924.50;5053553;28;20513;-66
2023/10/07 07:03:38;;;;;;;14.95;5.25;;;;;;;14.54;100.00;101918.88;5041908;28;20064;-67
2023/10/07 07:06:16;;;;;;;13.73;4.47;;;;;;;14.64;100.00;101920.59;5041867;28;20029;-66
2023/10/07 07:08:41;;;;;;;18.30;4.72;;;;;;;14.76;100.00;101929.75;5051002;28;20062;-66
2023/10/07 07:11:10;;;;;;;10.55;4.13;;;;;;;14.76;100.00;101929.75;5054409;28;20021;-67
2023/10/07 07:13:37;;;;;;;14.57;4.90;;;;;;;14.71;100.00;101917.19;5041883;28;20158;-67
2023/10/07 07:16:08;;;;;;;12.68;4.78;;;;;;;14.82;100.00;101915.25;5044287;28;20042;-66
2023/10/07 07:18:39;;;;;;;14.90;4.10;;;;;;;14.93;100.00;101915.78;5053138;28;20039;-67
2023/10/07 07:21:14;;;;;;;13.93;4.65;;;;;;;14.86;100.00;101919.19;5041524;28;20515;-66
2023/10/07 07:23:45;;;;;;;14.68;4.70;;;;;;;14.80;100.00;101918.03;5037235;28;20429;-67
2023/10/07 07:26:12;;;;;;;11.35;4.97;;;;;;;14.78;100.00;101919.97;5055251;28;20025;-66
2023/10/07 07:28:45;;;;;;;13.20;4.70;;;;;;;14.86;100.00;101924.41;5042744;28;20040;-67
2023/10/07 07:31:12;;;;;;;11.80;4.53;;;;;;;14.83;100.00;101927.38;5041274;28;20427;-66
2023/10/07 07:33:38;;;;;;;15.30;4.45;;;;;;;14.87;100.00;101924.25;5052842;28;20502;-67
2023/10/07 07:38:51;;;;;;;16.75;5.15;;;;;;;14.92;100.00;101914.19;5053176;28;20063;-67
2023/10/07 07:41:37;;;;;;;15.65;4.47;;;;;;;15.01;100.00;101930.69;5038347;28;20044;-67
2023/10/07 07:44:10;;;;;;;12.75;4.70;;;;;;;14.90;100.00;101931.78;5056237;28;20422;-67
2023/10/07 07:46:51;;;;;;;10.95;4.32;;;;;;;14.87;100.00;101932.09;5038915;28;20443;-67
2023/10/07 07:49:19;;;;;;;14.73;4.68;;;;;;;14.77;100.00;101931.41;5023149;28;20075;-67
2023/10/07 07:51:47;;;;;;;11.57;4.78;;;;;;;14.73;100.00;101923.06;5051208;28;20396;-66
2023/10/07 07:54:14;;;;;;;9.95;4.13;;;;;;;14.78;100.00;101927.81;5053307;28;20148;-66
2023/10/07 07:56:42;;;;;;;10.63;4.35;;;;;;;14.83;100.00;101925.56;5060365;28;20027;-67
2023/10/07 07:59:13;;;;;;;10.70;4.32;;;;;;;14.85;100.00;101931.44;5035311;28;20496;-67
2023/10/07 08:02:11;;;;;;;15.85;4.75;;;;;;;14.92;100.00;101931.66;5027326;28;20047;-67
2023/10/07 08:04:46;;;;;;;14.48;5.18;;;;;;;14.79;100.00;101930.28;5039103;28;20033;-67
2023/10/07 08:07:32;;;;;;;13.30;4.60;;;;;;;14.84;100.00;101927.19;5058464;28;20031;-67
2023/10/07 08:09:58;;;;;;;14.10;4.47;;;;;;;14.96;100.00;101919.91;5035385;28;20047;-67
2023/10/07 08:12:28;;;;;;;16.75;4.57;;;;;;;15.07;100.00;101929.22;5028028;28;20032;-67
2023/10/07 08:14:58;;;;;;;14.55;4.80;;;;;;;15.17;100.00;101929.94;5040025;28;20060;-67
2023/10/07 08:17:27;;;;;;;18.63;4.40;;;;;;;15.34;100.00;101936.00;5035384;28;20047;-67
2023/10/07 08:19:57;;;;;;;12.18;4.00;;;;;;;15.31;100.00;101945.00;5037648;28;20131;-67
2023/10/07 08:22:27;;;;;;;14.70;4.40;;;;;;;15.35;100.00;101943.69;5055166;28;20037;-67
2023/10/07 08:24:53;;;;;;;13.77;4.72;;;;;;;15.38;100.00;101951.19;5040597;28;20037;-67
2023/10/07 08:30:06;;;;;;;17.17;4.47;;;;;;;15.48;100.00;101931.94;5037099;28;20127;-66
2023/10/07 08:32:41;;;;;;;18.25;4.97;;;;;;;15.55;100.00;101928.53;5044279;28;20090;-67
2023/10/07 08:35:18;;;;;;;15.98;4.20;;;;;;;15.58;100.00;101924.78;5054858;28;20037;-67
2023/10/07 08:37:47;;;;;;;13.57;4.28;;;;;;;15.62;100.00;101928.72;5037843;28;20104;-67
2023/10/07 08:40:28;;;;;;;11.55;3.88;;;;;;;15.67;100.00;101936.91;5054603;28;20091;-66
2023/10/07 08:42:56;;;;;;;10.63;4.28;;;;;;;15.75;100.00;101930.88;5050720;28;20053;-67
2023/10/07 08:45:25;;;;;;;15.65;4.40;;;;;;;15.92;100.00;101939.56;5038124;28;20025;-67
2023/10/07 08:47:52;;;;;;;14.55;4.45;;;;;;;15.95;100.00;101934.81;5043428;28;20123;-67
2023/10/07 08:50:23;;;;;;;12.02;4.40;;;;;;;15.93;100.00;101943.78;5044346;28;20453;-67
2023/10/07 08:53:05;;;;;;;14.82;4.13;;;;;;;16.01;100.00;101951.66;5035912;28;20510;-67
2023/10/07 08:55:32;;;;;;;16.77;5.30;;;;;;;16.08;100.00;101951.81;5029580;28;20422;-66
2023/10/07 08:58:02;;;;;;;10.98;4.07;;;;;;;16.21;100.00;101946.06;5041120;28;20036;-67
2023/10/07 09:00:32;;;;;;;12.68;4.38;;;;;;;16.74;99.54;101936.78;5038673;28;20020;-66
2023/10/07 09:02:59;;;;;;;13.10;4.45;;;;;;;17.30;95.93;101934.91;5029358;28;20139;-67
2023/10/07 09:05:27;;;;;;;15.65;4.75;;;;;;;17.64;93.39;101931.09;5037881;28;20039;-67
2023/10/07 09:07:56;;;;;;;16.05;3.70;;;;;;;17.98;91.57;101924.63;5058822;28;20123;-67
2023/10/07 09:10:28;;;;;;;11.85;4.05;;;;;;;18.16;90.19;101926.09;5057361;28;20070;-67
2023/10/07 09:12:56;;;;;;;11.52;4.07;;;;;;;18.17;90.67;101902.28;5059448;28;20498;-66
2023/10/07 09:15:34;;;;;;;14.82;3.97;;;;;;;18.26;89.25;101903.84;5046937;28;20150;-66
2023/10/07 09:18:04;;;;;;;14.35;4.22;;;;;;;18.48;88.75;101902.13;5032449;28;20037;-67
2023/10/07 09:20:31;;;;;;;7.78;3.75;;;;;;;18.57;87.68;101902.03;5056123;28;20041;-67
2023/10/07 09:23:14;;;;;;;15.00;4.13;;;;;;;18.55;87.31;101898.78;5044937;28;20171;-67
2023/10/07 09:25:46;;;;;;;;;;;;;;;18.54;86.77;101897.97;5057702;28;20750;-67
2023/10/07 09:28:13;;;;;;;9.57;3.65;;;;;;;18.51;86.61;101898.31;5027445;28;19916;-67
2023/10/07 09:33:13;;;;;;;7.22;3.55;;;;;;;18.68;87.95;101905.03;5042691;28;20036;-67
2023/10/07 09:38:41;;;;;;;10.57;3.67;;;;;;;18.68;87.32;101899.78;5060337;28;20048;-67
2023/10/07 09:41:12;;;;;;;13.65;3.30;;;;;;;18.88;86.28;101903.66;5046983;28;20629;-67
2023/10/07 09:43:42;;;;;;;10.05;3.40;;;;;;;18.80;86.35;101900.13;5058157;28;20091;-67
2023/10/07 09:46:08;;;;;;;10.18;3.30;;;;;;;18.95;86.81;101904.53;5057856;28;20091;-67
2023/10/07 09:48:40;;;;;;;18.45;4.47;;;;;;;19.00;86.62;101902.97;5043904;28;20032;-67
2023/10/07 09:51:14;;;;;;;12.37;3.80;;;;;;;19.13;84.97;101904.13;5058612;28;20055;-67
2023/10/07 09:53:59;;;;;;;13.45;3.42;;;;;;;19.26;85.87;101910.34;5043368;28;20482;-67
2023/10/07 09:56:33;;;;;;;13.43;3.70;;;;;;;19.24;84.89;101893.94;5061635;28;20075;-67
2023/10/07 09:59:32;;;;;;;10.30;3.20;;;;;;;18.99;84.67;101906.63;5023932;28;20072;-67
2023/10/07 10:02:05;;;;;;;8.10;3.20;;;;;;;19.06;84.71;101888.28;5032785;28;20102;-67
2023/10/07 10:05:00;;;;;;;12.00;3.13;;;;;;;19.04;83.56;101885.03;5042299;28;20041;-67
2023/10/07 10:07:44;;;;;;;10.73;3.50;;;;;;;19.05;85.04;101887.47;5055867;28;20037;-67
2023/10/07 10:10:13;;;;;;;13.98;3.60;;;;;;;19.30;84.18;101883.69;5057738;28;20102;-67
2023/10/07 10:12:56;;;;;;;7.43;2.92;;;;;;;19.32;83.89;101889.56;5060886;28;20053;-68
2023/10/07 10:18:07;;;;;;;9.75;3.70;;;;;;;19.52;82.50;101885.31;5035532;28;20041;-67
2023/10/07 10:20:45;;;;;;;8.43;2.88;;;;;;;19.45;82.93;101887.06;5057575;28;20409;-67
2023/10/07 10:23:19;;;;;;;9.38;3.47;;;;;;;19.55;83.48;101882.31;5052872;28;20475;-67
2023/10/07 10:25:52;;;;;;;8.73;3.03;;;;;;;19.60;81.87;101881.72;5058735;28;20167;-67
2023/10/07 10:28:27;;;;;;;15.73;3.45;;;;;;;19.67;80.54;101889.69;5025995;28;20498;-66
2023/10/07 10:30:56;;;;;;;8.40;3.40;;;;;;;19.61;80.71;101886.81;5038066;28;20041;-67
2023/10/07 10:33:24;;;;;;;11.85;3.08;;;;;;;19.68;80.83;101886.03;5039120;28;20049;-67
2023/10/07 10:35:59;;;;;;;6.20;2.40;;;;;;;19.70;80.51;101884.03;5055751;28;20426;-67
2023/10/07 10:38:38;;;;;;;6.28;2.97;;;;;;;19.82;80.94;101882.56;5040385;28;20040;-68
2023/10/07 10:41:04;;;;;;;10.07;2.70;;;;;;;19.81;79.29;101886.97;5057359;28;20510;-67
2023/10/07 10:43:31;;;;;;;7.88;2.50;;;;;;;19.78;79.43;101892.63;5039082;28;20045;-67
2023/10/07 10:46:14;;;;;;;7.97;2.83;;;;;;;19.78;80.75;101894.47;5042162;28;20037;-67
2023/10/07 10:48:41;;;;;;;9.75;2.70;;;;;;;19.92;79.33;101898.81;5045429;28;20063;-67
2023/10/07 10:51:07;;;;;;;10.25;3.10;;;;;;;20.05;79.23;101900.72;5057659;28;20044;-67
2023/10/07 10:53:34;;;;;;;19.35;3.13;;;;;;;19.96;79.03;101900.03;5058631;28;20048;-67
2023/10/07 10:56:03;;;;;;;9.55;2.40;;;;;;;20.11;78.42;101893.88;5044142;28;20035;-67
2023/10/07 10:58:30;;;;;;;7.47;2.65;;;;;;;20.14;78.04;101899.56;5042249;28;20037;-67
2023/10/07 11:00:55;;;;;;;7.45;2.88;;;;;;;20.12;77.61;101891.06;5037864;28;20413;-67
2023/10/07 11:03:21;;;;;;;10.85;2.88;;;;;;;20.05;76.77;101890.19;5056033;28;20040;-67
2023/10/07 11:05:58;;;;;;;9.70;3.28;;;;;;;20.09;77.43;101885.34;5057897;28;20044;-67
2023/10/07 11:08:28;;;;;;;9.68;2.80;;;;;;;20.11;77.00;101872.81;5053119;28;20106;-68
2023/10/07 11:10:57;;;;;;;8.90;2.78;;;;;;;20.11;78.21;101872.81;5043285;28;21304;-67
2023/10/07 11:13:24;;;;;;;6.38;2.60;;;;;;;20.30;77.39;101874.75;5052466;28;20082;-67
2023/10/07 11:16:10;;;;;;;12.85;2.53;;;;;;;20.36;77.07;101878.41;5056743;28;20028;-67
2023/10/07 11:18:37;;;;;;;5.78;2.42;;;;;;;20.31;78.02;101878.22;5042750;28;20094;-68
2023/10/07 11:21:09;;;;;;;9.02;2.38;;;;;;;20.34;79.23;101868.09;5054995;28;20391;-67
2023/10/07 11:23:53;;;;;;;8.55;3.08;;;;;;;20.36;77.53;101871.34;5045036;28;20725;-67
2023/10/07 11:26:20;;;;;;;8.00;2.78;;;;;;;20.46;76.06;101867.53;5056789;28;20032;-67
2023/10/07 11:28:48;;;;;;;10.65;2.78;;;;;;;20.53;75.45;101876.25;5039304;28;20040;-67
2023/10/07 11:31:20;;;;;;;9.60;3.45;;;;;;;20.51;74.71;101871.22;5055138;28;20036;-67
2023/10/07 11:33:50;;;;;;;6.65;2.80;;;;;;;20.52;75.90;101864.13;5055826;28;20048;-67
2023/10/07 11:36:16;;;;;;;7.53;2.53;;;;;;;20.75;75.00;101875.16;5054046;28;20040;-67
2023/10/07 11:38:42;;;;;;;11.23;2.53;;;;;;;20.65;75.17;101866.84;5056551;28;20045;-67
2023/10/07 11:41:10;;;;;;;9.07;2.40;;;;;;;20.65;75.69;101864.19;5053508;28;20055;-67
2023/10/07 11:43:47;;;;;;;8.77;2.88;;;;;;;20.70;74.95;101855.69;5054439;28;20041;-67
2023/10/07 11:46:14;;;;;;;10.10;2.90;;;;;;;20.83;74.79;101844.38;5056215;28;20657;-67
2023/10/07 11:48:49;;;;;;;11.07;4.97;;;;;;;20.76;74.33;101852.28;5052260;28;20128;-69
2023/10/07 11:51:15;;;;;;;8.13;3.45;;;;;;;20.69;74.25;101846.97;5055801;28;20059;-67
2023/10/07 11:53:41;;;;;;;8.70;3.03;;;;;;;20.64;73.70;101844.13;5054494;28;20052;-67
2023/10/07 11:56:11;;;;;;;10.77;2.88;;;;;;;20.83;73.56;101841.75;5042823;28;20398;-67
2023/10/07 11:58:37;;;;;;;11.88;3.65;;;;;;;20.79;72.89;101839.53;5043967;28;20124;-67
2023/10/07 12:01:03;;;;;;;9.13;3.13;;;;;;;20.92;73.80;101837.91;5041735;28;20031;-67
2023/10/07 12:03:30;;;;;;;13.35;3.65;;;;;;;20.72;74.08;101846.59;5056838;28;20412;-67
2023/10/07 12:05:58;;;;;;;7.55;3.53;;;;;;;20.85;73.95;101837.09;5054871;28;20029;-67
2023/10/07 12:08:23;;;;;;;10.75;2.83;;;;;;;20.82;74.01;101837.50;5058204;28;20387;-66